sensor_id;sensor_type;location;lat;lon;timestamp;P1;durP1;ratioP1;P2;durP2;ratioP2
41663;SDS011;27353;50.906;7.248;2022-11-12T00:00:29;11.35;;;10.35;;
41663;SDS011;27353;50.906;7.248;2022-11-12T00:02:55;9.77;;;9.10;;
41663;SDS011;27353;50.906;7.248;2022-11-12T00:05:21;11.00;;;9.73;;
41663;SDS011;27353;50.906;7.248;2022-11-12T00:07:47;11.63;;;10.43;;
41663;SDS011;27353;50.906;7.248;2022-11-12T00:10:12;12.70;;;11.25;;
41663;SDS011;27353;50.906;7.248;2022-11-12T00:12:38;12.85;;;10.38;;
41663;SDS011;27353;50.906;7.248;2022-11-12T00:15:03;11.80;;;10.63;;
41663;SDS011;27353;50.906;7.248;2022-11-12T00:17:29;11.25;;;10.05;;
41663;SDS011;27353;50.906;7.248;2022-11-12T00:19:55;16.20;;;10.68;;
41663;SDS011;27353;50.906;7.248;2022-11-12T00:22:20;11.75;;;10.57;;
41663;SDS011;27353;50.906;7.248;2022-11-12T00:24:46;10.60;;;9.68;;
41663;SDS011;27353;50.906;7.248;2022-11-12T00:27:12;11.95;;;10.82;;
41663;SDS011;27353;50.906;7.248;2022-11-12T00:29:38;11.55;;;9.32;;
41663;SDS011;27353;50.906;7.248;2022-11-12T00:32:04;13.32;;;12.02;;
41663;SDS011;27353;50.906;7.248;2022-11-12T00:34:30;11.27;;;10.15;;
41663;SDS011;27353;50.906;7.248;2022-11-12T00:36:56;12.93;;;10.95;;
41663;SDS011;27353;50.906;7.248;2022-11-12T00:39:23;12.38;;;11.30;;
41663;SDS011;27353;50.906;7.248;2022-11-12T00:41:48;12.27;;;10.30;;
41663;SDS011;27353;50.906;7.248;2022-11-12T00:44:14;11.50;;;10.45;;
41663;SDS011;27353;50.906;7.248;2022-11-12T00:46:40;11.00;;;9.95;;
41663;SDS011;27353;50.906;7.248;2022-11-12T00:49:05;12.15;;;11.05;;
41663;SDS011;27353;50.906;7.248;2022-11-12T00:51:31;11.02;;;10.02;;
41663;SDS011;27353;50.906;7.248;2022-11-12T00:53:57;12.38;;;10.13;;
41663;SDS011;27353;50.906;7.248;2022-11-12T00:56:23;13.35;;;11.35;;
41663;SDS011;27353;50.906;7.248;2022-11-12T00:58:48;12.00;;;10.80;;
41663;SDS011;27353;50.906;7.248;2022-11-12T01:01:14;12.18;;;10.90;;
41663;SDS011;27353;50.906;7.248;2022-11-12T01:03:40;11.05;;;10.02;;
41663;SDS011;27353;50.906;7.248;2022-11-12T01:06:08;11.60;;;10.10;;
41663;SDS011;27353;50.906;7.248;2022-11-12T01:08:36;14.38;;;9.82;;
41663;SDS011;27353;50.906;7.248;2022-11-12T01:11:10;10.77;;;9.90;;
41663;SDS011;27353;50.906;7.248;2022-11-12T01:13:42;12.05;;;10.43;;
41663;SDS011;27353;50.906;7.248;2022-11-12T01:16:17;10.60;;;9.70;;
41663;SDS011;27353;50.906;7.248;2022-11-12T01:18:44;10.35;;;9.35;;
41663;SDS011;27353;50.906;7.248;2022-11-12T01:21:11;10.25;;;9.35;;
41663;SDS011;27353;50.906;7.248;2022-11-12T01:23:38;10.65;;;9.32;;
41663;SDS011;27353;50.906;7.248;2022-11-12T01:26:06;10.60;;;9.65;;
41663;SDS011;27353;50.906;7.248;2022-11-12T01:28:32;11.65;;;10.32;;
41663;SDS011;27353;50.906;7.248;2022-11-12T01:31:12;11.40;;;10.07;;
41663;SDS011;27353;50.906;7.248;2022-11-12T01:33:40;11.32;;;10.30;;
41663;SDS011;27353;50.906;7.248;2022-11-12T01:36:06;11.25;;;10.13;;
41663;SDS011;27353;50.906;7.248;2022-11-12T01:38:33;14.43;;;10.60;;
41663;SDS011;27353;50.906;7.248;2022-11-12T01:40:59;12.30;;;9.80;;
41663;SDS011;27353;50.906;7.248;2022-11-12T01:43:25;11.35;;;10.32;;
41663;SDS011;27353;50.906;7.248;2022-11-12T01:45:50;10.13;;;9.07;;
41663;SDS011;27353;50.906;7.248;2022-11-12T01:48:24;14.43;;;12.80;;
41663;SDS011;27353;50.906;7.248;2022-11-12T01:50:52;10.82;;;9.88;;
41663;SDS011;27353;50.906;7.248;2022-11-12T01:53:19;14.57;;;10.57;;
41663;SDS011;27353;50.906;7.248;2022-11-12T01:55:46;13.05;;;10.27;;
41663;SDS011;27353;50.906;7.248;2022-11-12T01:58:13;11.32;;;10.23;;
41663;SDS011;27353;50.906;7.248;2022-11-12T02:00:40;10.40;;;9.40;;
41663;SDS011;27353;50.906;7.248;2022-11-12T02:03:08;11.00;;;10.07;;
41663;SDS011;27353;50.906;7.248;2022-11-12T02:05:38;16.85;;;10.85;;
41663;SDS011;27353;50.906;7.248;2022-11-12T02:08:06;10.90;;;9.93;;
41663;SDS011;27353;50.906;7.248;2022-11-12T02:10:35;10.73;;;9.77;;
41663;SDS011;27353;50.906;7.248;2022-11-12T02:13:02;12.52;;;10.90;;
41663;SDS011;27353;50.906;7.248;2022-11-12T02:15:46;12.98;;;10.02;;
41663;SDS011;27353;50.906;7.248;2022-11-12T02:18:11;11.23;;;10.07;;
41663;SDS011;27353;50.906;7.248;2022-11-12T02:20:37;11.38;;;9.73;;
41663;SDS011;27353;50.906;7.248;2022-11-12T02:23:03;12.10;;;10.93;;
41663;SDS011;27353;50.906;7.248;2022-11-12T02:25:31;12.40;;;11.10;;
41663;SDS011;27353;50.906;7.248;2022-11-12T02:27:57;12.35;;;9.88;;
41663;SDS011;27353;50.906;7.248;2022-11-12T02:30:41;12.60;;;10.43;;
41663;SDS011;27353;50.906;7.248;2022-11-12T02:33:09;12.73;;;11.52;;
41663;SDS011;27353;50.906;7.248;2022-11-12T02:35:34;15.13;;;12.70;;
41663;SDS011;27353;50.906;7.248;2022-11-12T02:38:00;11.60;;;10.55;;
41663;SDS011;27353;50.906;7.248;2022-11-12T02:40:26;13.70;;;12.35;;
41663;SDS011;27353;50.906;7.248;2022-11-12T02:42:52;10.38;;;9.05;;
41663;SDS011;27353;50.906;7.248;2022-11-12T02:45:17;11.05;;;10.07;;
41663;SDS011;27353;50.906;7.248;2022-11-12T02:47:44;12.07;;;10.80;;
41663;SDS011;27353;50.906;7.248;2022-11-12T02:50:09;10.20;;;9.25;;
41663;SDS011;27353;50.906;7.248;2022-11-12T02:52:35;11.05;;;10.02;;
41663;SDS011;27353;50.906;7.248;2022-11-12T02:55:01;11.00;;;9.00;;
41663;SDS011;27353;50.906;7.248;2022-11-12T02:57:26;11.23;;;9.52;;
41663;SDS011;27353;50.906;7.248;2022-11-12T02:59:53;13.38;;;10.00;;
41663;SDS011;27353;50.906;7.248;2022-11-12T03:02:19;11.15;;;9.57;;
41663;SDS011;27353;50.906;7.248;2022-11-12T03:04:45;11.00;;;9.98;;
41663;SDS011;27353;50.906;7.248;2022-11-12T03:07:10;10.00;;;9.07;;
41663;SDS011;27353;50.906;7.248;2022-11-12T03:09:36;11.60;;;9.90;;
41663;SDS011;27353;50.906;7.248;2022-11-12T03:12:01;9.65;;;8.85;;
41663;SDS011;27353;50.906;7.248;2022-11-12T03:14:27;12.15;;;8.95;;
41663;SDS011;27353;50.906;7.248;2022-11-12T03:16:52;10.43;;;9.63;;
41663;SDS011;27353;50.906;7.248;2022-11-12T03:19:18;9.95;;;8.65;;
41663;SDS011;27353;50.906;7.248;2022-11-12T03:21:44;10.25;;;9.45;;
41663;SDS011;27353;50.906;7.248;2022-11-12T03:24:09;9.98;;;9.07;;
41663;SDS011;27353;50.906;7.248;2022-11-12T03:26:35;9.80;;;8.82;;
41663;SDS011;27353;50.906;7.248;2022-11-12T03:29:00;10.25;;;9.40;;
41663;SDS011;27353;50.906;7.248;2022-11-12T03:31:26;10.32;;;9.43;;
41663;SDS011;27353;50.906;7.248;2022-11-12T03:33:51;12.30;;;9.82;;
41663;SDS011;27353;50.906;7.248;2022-11-12T03:36:17;10.43;;;9.45;;
41663;SDS011;27353;50.906;7.248;2022-11-12T03:38:42;11.20;;;10.25;;
41663;SDS011;27353;50.906;7.248;2022-11-12T03:41:08;10.40;;;9.50;;
41663;SDS011;27353;50.906;7.248;2022-11-12T03:43:34;10.55;;;9.55;;
41663;SDS011;27353;50.906;7.248;2022-11-12T03:45:59;10.88;;;9.98;;
41663;SDS011;27353;50.906;7.248;2022-11-12T03:48:25;11.60;;;10.13;;
41663;SDS011;27353;50.906;7.248;2022-11-12T03:50:51;10.98;;;10.00;;
41663;SDS011;27353;50.906;7.248;2022-11-12T03:53:20;10.85;;;9.75;;
41663;SDS011;27353;50.906;7.248;2022-11-12T03:55:46;10.90;;;9.98;;
41663;SDS011;27353;50.906;7.248;2022-11-12T03:58:12;8.95;;;8.35;;
41663;SDS011;27353;50.906;7.248;2022-11-12T04:00:37;11.55;;;10.57;;
41663;SDS011;27353;50.906;7.248;2022-11-12T04:03:03;11.27;;;10.25;;
41663;SDS011;27353;50.906;7.248;2022-11-12T04:05:28;9.73;;;8.82;;
41663;SDS011;27353;50.906;7.248;2022-11-12T04:08:14;13.35;;;10.48;;
41663;SDS011;27353;50.906;7.248;2022-11-12T04:11:00;11.70;;;9.55;;
41663;SDS011;27353;50.906;7.248;2022-11-12T04:13:27;11.23;;;10.13;;
41663;SDS011;27353;50.906;7.248;2022-11-12T04:18:38;12.68;;;11.38;;
41663;SDS011;27353;50.906;7.248;2022-11-12T04:21:27;15.27;;;11.68;;
41663;SDS011;27353;50.906;7.248;2022-11-12T04:24:14;11.80;;;10.50;;
41663;SDS011;27353;50.906;7.248;2022-11-12T04:26:59;11.55;;;9.88;;
41663;SDS011;27353;50.906;7.248;2022-11-12T04:29:25;11.80;;;10.80;;
41663;SDS011;27353;50.906;7.248;2022-11-12T04:32:10;11.82;;;10.73;;
41663;SDS011;27353;50.906;7.248;2022-11-12T04:34:35;10.20;;;9.50;;
41663;SDS011;27353;50.906;7.248;2022-11-12T04:37:02;11.20;;;10.20;;
41663;SDS011;27353;50.906;7.248;2022-11-12T04:39:29;11.32;;;10.43;;
41663;SDS011;27353;50.906;7.248;2022-11-12T04:41:55;11.60;;;9.18;;
41663;SDS011;27353;50.906;7.248;2022-11-12T04:44:39;12.98;;;10.85;;
41663;SDS011;27353;50.906;7.248;2022-11-12T04:47:23;10.63;;;9.88;;
41663;SDS011;27353;50.906;7.248;2022-11-12T04:49:48;10.15;;;9.35;;
41663;SDS011;27353;50.906;7.248;2022-11-12T04:52:14;12.75;;;11.45;;
41663;SDS011;27353;50.906;7.248;2022-11-12T04:54:40;14.10;;;12.85;;
41663;SDS011;27353;50.906;7.248;2022-11-12T04:57:06;14.88;;;13.45;;
41663;SDS011;27353;50.906;7.248;2022-11-12T04:59:31;14.35;;;12.50;;
41663;SDS011;27353;50.906;7.248;2022-11-12T05:01:57;12.00;;;11.00;;
41663;SDS011;27353;50.906;7.248;2022-11-12T05:04:22;11.07;;;10.27;;
41663;SDS011;27353;50.906;7.248;2022-11-12T05:06:51;12.40;;;11.27;;
41663;SDS011;27353;50.906;7.248;2022-11-12T05:09:18;12.10;;;11.15;;
41663;SDS011;27353;50.906;7.248;2022-11-12T05:11:45;11.88;;;11.10;;
41663;SDS011;27353;50.906;7.248;2022-11-12T05:14:11;12.73;;;11.70;;
41663;SDS011;27353;50.906;7.248;2022-11-12T05:16:37;10.35;;;9.40;;
41663;SDS011;27353;50.906;7.248;2022-11-12T05:19:03;14.75;;;9.50;;
41663;SDS011;27353;50.906;7.248;2022-11-12T05:21:28;12.50;;;10.80;;
41663;SDS011;27353;50.906;7.248;2022-11-12T05:24:13;10.57;;;9.77;;
41663;SDS011;27353;50.906;7.248;2022-11-12T05:26:39;11.60;;;10.57;;
41663;SDS011;27353;50.906;7.248;2022-11-12T05:29:04;11.65;;;10.25;;
41663;SDS011;27353;50.906;7.248;2022-11-12T05:31:30;9.75;;;9.10;;
41663;SDS011;27353;50.906;7.248;2022-11-12T05:33:56;13.30;;;10.73;;
41663;SDS011;27353;50.906;7.248;2022-11-12T05:36:22;11.82;;;10.93;;
41663;SDS011;27353;50.906;7.248;2022-11-12T05:38:47;12.25;;;10.55;;
41663;SDS011;27353;50.906;7.248;2022-11-12T05:41:13;11.25;;;10.20;;
41663;SDS011;27353;50.906;7.248;2022-11-12T05:43:38;17.55;;;12.65;;
41663;SDS011;27353;50.906;7.248;2022-11-12T05:46:04;11.80;;;10.90;;
41663;SDS011;27353;50.906;7.248;2022-11-12T05:48:30;11.77;;;10.77;;
41663;SDS011;27353;50.906;7.248;2022-11-12T05:50:55;11.90;;;11.02;;
41663;SDS011;27353;50.906;7.248;2022-11-12T05:53:21;11.90;;;10.90;;
41663;SDS011;27353;50.906;7.248;2022-11-12T05:55:47;11.63;;;10.60;;
41663;SDS011;27353;50.906;7.248;2022-11-12T05:58:12;13.05;;;11.95;;
41663;SDS011;27353;50.906;7.248;2022-11-12T06:00:38;11.68;;;10.88;;
41663;SDS011;27353;50.906;7.248;2022-11-12T06:03:04;12.02;;;11.15;;
41663;SDS011;27353;50.906;7.248;2022-11-12T06:05:30;12.40;;;11.30;;
41663;SDS011;27353;50.906;7.248;2022-11-12T06:07:56;11.50;;;10.43;;
41663;SDS011;27353;50.906;7.248;2022-11-12T06:10:22;12.80;;;11.50;;
41663;SDS011;27353;50.906;7.248;2022-11-12T06:12:48;10.90;;;10.00;;
41663;SDS011;27353;50.906;7.248;2022-11-12T06:15:13;10.20;;;9.23;;
41663;SDS011;27353;50.906;7.248;2022-11-12T06:17:39;10.18;;;9.20;;
41663;SDS011;27353;50.906;7.248;2022-11-12T06:20:06;10.80;;;9.77;;
41663;SDS011;27353;50.906;7.248;2022-11-12T06:22:32;10.68;;;9.45;;
41663;SDS011;27353;50.906;7.248;2022-11-12T06:24:58;8.57;;;7.97;;
41663;SDS011;27353;50.906;7.248;2022-11-12T06:27:23;9.45;;;8.77;;
41663;SDS011;27353;50.906;7.248;2022-11-12T06:29:49;8.88;;;8.38;;
41663;SDS011;27353;50.906;7.248;2022-11-12T06:32:15;9.23;;;8.52;;
41663;SDS011;27353;50.906;7.248;2022-11-12T06:34:40;9.75;;;8.95;;
41663;SDS011;27353;50.906;7.248;2022-11-12T06:37:06;9.95;;;9.25;;
41663;SDS011;27353;50.906;7.248;2022-11-12T06:39:31;9.68;;;8.80;;
41663;SDS011;27353;50.906;7.248;2022-11-12T06:41:57;8.82;;;8.13;;
41663;SDS011;27353;50.906;7.248;2022-11-12T06:44:22;9.20;;;8.57;;
41663;SDS011;27353;50.906;7.248;2022-11-12T06:46:48;9.38;;;8.68;;
41663;SDS011;27353;50.906;7.248;2022-11-12T06:49:13;9.63;;;9.02;;
41663;SDS011;27353;50.906;7.248;2022-11-12T06:51:39;9.70;;;9.00;;
41663;SDS011;27353;50.906;7.248;2022-11-12T06:54:05;9.18;;;8.50;;
41663;SDS011;27353;50.906;7.248;2022-11-12T06:56:30;10.23;;;9.40;;
41663;SDS011;27353;50.906;7.248;2022-11-12T06:58:56;9.60;;;8.68;;
41663;SDS011;27353;50.906;7.248;2022-11-12T07:01:21;10.25;;;9.23;;
41663;SDS011;27353;50.906;7.248;2022-11-12T07:03:49;9.52;;;8.93;;
41663;SDS011;27353;50.906;7.248;2022-11-12T07:06:16;9.57;;;8.77;;
41663;SDS011;27353;50.906;7.248;2022-11-12T07:08:44;9.80;;;9.00;;
41663;SDS011;27353;50.906;7.248;2022-11-12T07:11:13;10.57;;;9.57;;
41663;SDS011;27353;50.906;7.248;2022-11-12T07:13:39;9.65;;;8.77;;
41663;SDS011;27353;50.906;7.248;2022-11-12T07:16:05;8.98;;;8.38;;
41663;SDS011;27353;50.906;7.248;2022-11-12T07:18:32;9.30;;;8.60;;
41663;SDS011;27353;50.906;7.248;2022-11-12T07:20:59;10.50;;;9.73;;
41663;SDS011;27353;50.906;7.248;2022-11-12T07:23:29;10.02;;;9.38;;
41663;SDS011;27353;50.906;7.248;2022-11-12T07:25:57;9.60;;;8.70;;
41663;SDS011;27353;50.906;7.248;2022-11-12T07:28:24;10.88;;;9.85;;
41663;SDS011;27353;50.906;7.248;2022-11-12T07:30:57;10.35;;;9.68;;
41663;SDS011;27353;50.906;7.248;2022-11-12T07:33:24;9.20;;;8.50;;
41663;SDS011;27353;50.906;7.248;2022-11-12T07:38:33;9.80;;;9.25;;
41663;SDS011;27353;50.906;7.248;2022-11-12T07:41:04;12.52;;;11.32;;
41663;SDS011;27353;50.906;7.248;2022-11-12T07:43:31;14.48;;;12.18;;
41663;SDS011;27353;50.906;7.248;2022-11-12T07:45:59;12.27;;;11.38;;
41663;SDS011;27353;50.906;7.248;2022-11-12T07:48:26;10.40;;;9.70;;
41663;SDS011;27353;50.906;7.248;2022-11-12T07:50:58;10.88;;;10.18;;
41663;SDS011;27353;50.906;7.248;2022-11-12T07:53:27;10.07;;;9.27;;
41663;SDS011;27353;50.906;7.248;2022-11-12T07:55:58;10.98;;;9.90;;
41663;SDS011;27353;50.906;7.248;2022-11-12T07:58:25;10.18;;;9.40;;
41663;SDS011;27353;50.906;7.248;2022-11-12T08:00:53;11.32;;;10.43;;
41663;SDS011;27353;50.906;7.248;2022-11-12T08:03:19;10.70;;;9.70;;
41663;SDS011;27353;50.906;7.248;2022-11-12T08:05:45;10.35;;;9.75;;
41663;SDS011;27353;50.906;7.248;2022-11-12T08:08:11;9.98;;;9.18;;
41663;SDS011;27353;50.906;7.248;2022-11-12T08:10:36;11.90;;;10.77;;
41663;SDS011;27353;50.906;7.248;2022-11-12T08:13:02;11.77;;;10.98;;
41663;SDS011;27353;50.906;7.248;2022-11-12T08:15:28;12.50;;;11.60;;
41663;SDS011;27353;50.906;7.248;2022-11-12T08:17:54;12.50;;;11.75;;
41663;SDS011;27353;50.906;7.248;2022-11-12T08:20:20;13.23;;;12.38;;
41663;SDS011;27353;50.906;7.248;2022-11-12T08:22:46;12.95;;;12.25;;
41663;SDS011;27353;50.906;7.248;2022-11-12T08:25:12;13.25;;;12.52;;
41663;SDS011;27353;50.906;7.248;2022-11-12T08:27:37;12.65;;;12.02;;
41663;SDS011;27353;50.906;7.248;2022-11-12T08:30:03;14.30;;;13.60;;
41663;SDS011;27353;50.906;7.248;2022-11-12T08:32:29;14.13;;;13.25;;
41663;SDS011;27353;50.906;7.248;2022-11-12T08:34:55;12.82;;;12.18;;
41663;SDS011;27353;50.906;7.248;2022-11-12T08:37:21;13.30;;;12.63;;
41663;SDS011;27353;50.906;7.248;2022-11-12T08:39:46;14.00;;;13.30;;
41663;SDS011;27353;50.906;7.248;2022-11-12T08:42:12;14.13;;;13.43;;
41663;SDS011;27353;50.906;7.248;2022-11-12T08:44:37;14.20;;;13.52;;
41663;SDS011;27353;50.906;7.248;2022-11-12T08:47:03;14.25;;;13.55;;
41663;SDS011;27353;50.906;7.248;2022-11-12T08:49:29;14.65;;;13.95;;
41663;SDS011;27353;50.906;7.248;2022-11-12T08:51:54;15.77;;;14.85;;
41663;SDS011;27353;50.906;7.248;2022-11-12T08:54:21;13.98;;;13.30;;
41663;SDS011;27353;50.906;7.248;2022-11-12T08:56:47;15.40;;;14.60;;
41663;SDS011;27353;50.906;7.248;2022-11-12T08:59:13;15.38;;;14.68;;
41663;SDS011;27353;50.906;7.248;2022-11-12T09:01:38;15.45;;;14.70;;
41663;SDS011;27353;50.906;7.248;2022-11-12T09:04:04;15.73;;;14.70;;
41663;SDS011;27353;50.906;7.248;2022-11-12T09:06:30;16.45;;;15.52;;
41663;SDS011;27353;50.906;7.248;2022-11-12T09:08:55;15.40;;;14.32;;
41663;SDS011;27353;50.906;7.248;2022-11-12T09:11:21;14.18;;;13.48;;
41663;SDS011;27353;50.906;7.248;2022-11-12T09:13:46;14.30;;;13.60;;
41663;SDS011;27353;50.906;7.248;2022-11-12T09:16:12;15.52;;;14.60;;
41663;SDS011;27353;50.906;7.248;2022-11-12T09:18:38;15.10;;;14.30;;
41663;SDS011;27353;50.906;7.248;2022-11-12T09:21:08;15.10;;;14.30;;
41663;SDS011;27353;50.906;7.248;2022-11-12T09:23:35;14.13;;;13.43;;
41663;SDS011;27353;50.906;7.248;2022-11-12T09:26:01;16.67;;;15.55;;
41663;SDS011;27353;50.906;7.248;2022-11-12T09:28:27;16.85;;;15.95;;
41663;SDS011;27353;50.906;7.248;2022-11-12T09:30:53;15.63;;;14.82;;
41663;SDS011;27353;50.906;7.248;2022-11-12T09:33:20;15.68;;;14.82;;
41663;SDS011;27353;50.906;7.248;2022-11-12T09:35:48;15.50;;;14.70;;
41663;SDS011;27353;50.906;7.248;2022-11-12T09:38:14;16.92;;;15.93;;
41663;SDS011;27353;50.906;7.248;2022-11-12T09:49:10;15.65;;;14.95;;
41663;SDS011;27353;50.906;7.248;2022-11-12T09:52:00;14.90;;;14.05;;
41663;SDS011;27353;50.906;7.248;2022-11-12T09:56:55;15.73;;;14.65;;
41663;SDS011;27353;50.906;7.248;2022-11-12T09:59:21;17.60;;;16.60;;
41663;SDS011;27353;50.906;7.248;2022-11-12T10:02:01;14.55;;;13.75;;
41663;SDS011;27353;50.906;7.248;2022-11-12T10:07:51;15.17;;;14.37;;
41663;SDS011;27353;50.906;7.248;2022-11-12T10:22:00;15.13;;;14.43;;
41663;SDS011;27353;50.906;7.248;2022-11-12T10:24:58;16.02;;;15.05;;
41663;SDS011;27353;50.906;7.248;2022-11-12T10:27:44;15.00;;;14.02;;
41663;SDS011;27353;50.906;7.248;2022-11-12T10:30:20;16.38;;;15.13;;
41663;SDS011;27353;50.906;7.248;2022-11-12T10:32:48;15.40;;;14.60;;
41663;SDS011;27353;50.906;7.248;2022-11-12T10:35:15;15.45;;;14.70;;
41663;SDS011;27353;50.906;7.248;2022-11-12T10:40:25;15.18;;;14.48;;
41663;SDS011;27353;50.906;7.248;2022-11-12T10:43:19;13.90;;;13.30;;
41663;SDS011;27353;50.906;7.248;2022-11-12T10:45:48;15.13;;;14.18;;
41663;SDS011;27353;50.906;7.248;2022-11-12T10:48:21;16.25;;;15.43;;
41663;SDS011;27353;50.906;7.248;2022-11-12T10:50:49;15.70;;;14.70;;
41663;SDS011;27353;50.906;7.248;2022-11-12T10:53:26;16.67;;;15.57;;
41663;SDS011;27353;50.906;7.248;2022-11-12T10:55:57;16.35;;;15.50;;
41663;SDS011;27353;50.906;7.248;2022-11-12T10:58:25;17.05;;;16.15;;
41663;SDS011;27353;50.906;7.248;2022-11-12T11:00:57;17.15;;;16.08;;
41663;SDS011;27353;50.906;7.248;2022-11-12T11:03:24;15.30;;;14.68;;
41663;SDS011;27353;50.906;7.248;2022-11-12T11:08:36;15.93;;;15.05;;
41663;SDS011;27353;50.906;7.248;2022-11-12T11:13:45;16.13;;;15.32;;
41663;SDS011;27353;50.906;7.248;2022-11-12T11:16:13;16.08;;;15.07;;
41663;SDS011;27353;50.906;7.248;2022-11-12T11:18:40;16.25;;;15.45;;
41663;SDS011;27353;50.906;7.248;2022-11-12T11:29:43;14.80;;;14.10;;
41663;SDS011;27353;50.906;7.248;2022-11-12T11:32:25;15.52;;;14.52;;
41663;SDS011;27353;50.906;7.248;2022-11-12T11:46:48;17.23;;;16.20;;
41663;SDS011;27353;50.906;7.248;2022-11-12T11:56:44;16.88;;;15.98;;
41663;SDS011;27353;50.906;7.248;2022-11-12T11:59:15;17.10;;;16.30;;
41663;SDS011;27353;50.906;7.248;2022-11-12T12:01:55;18.42;;;17.42;;
41663;SDS011;27353;50.906;7.248;2022-11-12T12:04:50;16.92;;;16.05;;
41663;SDS011;27353;50.906;7.248;2022-11-12T12:10:21;17.08;;;16.20;;
41663;SDS011;27353;50.906;7.248;2022-11-12T12:12:56;16.58;;;15.77;;
41663;SDS011;27353;50.906;7.248;2022-11-12T12:15:34;16.17;;;15.38;;
41663;SDS011;27353;50.906;7.248;2022-11-12T12:18:33;16.08;;;15.38;;
41663;SDS011;27353;50.906;7.248;2022-11-12T12:26:08;17.40;;;16.23;;
41663;SDS011;27353;50.906;7.248;2022-11-12T12:31:40;17.23;;;16.17;;
41663;SDS011;27353;50.906;7.248;2022-11-12T12:34:14;16.13;;;15.32;;
41663;SDS011;27353;50.906;7.248;2022-11-12T12:36:42;16.10;;;15.40;;
41663;SDS011;27353;50.906;7.248;2022-11-12T12:41:51;17.13;;;15.98;;
41663;SDS011;27353;50.906;7.248;2022-11-12T12:44:51;15.88;;;14.98;;
41663;SDS011;27353;50.906;7.248;2022-11-12T12:47:27;17.50;;;16.33;;
41663;SDS011;27353;50.906;7.248;2022-11-12T12:49:59;15.30;;;14.55;;
41663;SDS011;27353;50.906;7.248;2022-11-12T12:55:37;14.15;;;13.40;;
41663;SDS011;27353;50.906;7.248;2022-11-12T12:58:13;14.38;;;13.65;;
41663;SDS011;27353;50.906;7.248;2022-11-12T13:00:48;14.73;;;14.13;;
41663;SDS011;27353;50.906;7.248;2022-11-12T13:06:15;15.77;;;14.98;;
41663;SDS011;27353;50.906;7.248;2022-11-12T13:08:47;14.75;;;13.95;;
41663;SDS011;27353;50.906;7.248;2022-11-12T13:12:04;15.05;;;14.32;;
41663;SDS011;27353;50.906;7.248;2022-11-12T13:17:11;15.20;;;14.50;;
41663;SDS011;27353;50.906;7.248;2022-11-12T13:32:40;14.23;;;13.52;;
41663;SDS011;27353;50.906;7.248;2022-11-12T13:45:55;14.85;;;13.85;;
41663;SDS011;27353;50.906;7.248;2022-11-12T13:51:15;13.90;;;13.30;;
41663;SDS011;27353;50.906;7.248;2022-11-12T13:53:53;13.10;;;12.50;;
41663;SDS011;27353;50.906;7.248;2022-11-12T13:58:54;13.75;;;12.95;;
41663;SDS011;27353;50.906;7.248;2022-11-12T14:01:31;13.35;;;12.75;;
41663;SDS011;27353;50.906;7.248;2022-11-12T14:03:57;12.73;;;12.23;;
41663;SDS011;27353;50.906;7.248;2022-11-12T14:06:30;13.88;;;13.27;;
41663;SDS011;27353;50.906;7.248;2022-11-12T14:19:22;13.45;;;12.93;;
41663;SDS011;27353;50.906;7.248;2022-11-12T14:22:00;13.93;;;13.13;;
41663;SDS011;27353;50.906;7.248;2022-11-12T14:27:00;13.27;;;12.60;;
41663;SDS011;27353;50.906;7.248;2022-11-12T14:29:25;13.77;;;13.18;;
41663;SDS011;27353;50.906;7.248;2022-11-12T14:32:00;12.40;;;11.80;;
41663;SDS011;27353;50.906;7.248;2022-11-12T14:34:28;13.23;;;12.73;;
41663;SDS011;27353;50.906;7.248;2022-11-12T14:36:56;14.60;;;13.90;;
41663;SDS011;27353;50.906;7.248;2022-11-12T14:39:22;13.88;;;13.18;;
41663;SDS011;27353;50.906;7.248;2022-11-12T14:41:49;14.27;;;13.68;;
41663;SDS011;27353;50.906;7.248;2022-11-12T14:44:17;13.50;;;12.90;;
41663;SDS011;27353;50.906;7.248;2022-11-12T14:46:46;14.40;;;13.80;;
41663;SDS011;27353;50.906;7.248;2022-11-12T14:49:16;13.52;;;12.82;;
41663;SDS011;27353;50.906;7.248;2022-11-12T14:51:47;13.65;;;13.00;;
41663;SDS011;27353;50.906;7.248;2022-11-12T14:54:22;13.43;;;12.88;;
41663;SDS011;27353;50.906;7.248;2022-11-12T14:56:53;13.02;;;12.40;;
41663;SDS011;27353;50.906;7.248;2022-11-12T14:59:20;13.88;;;13.27;;
41663;SDS011;27353;50.906;7.248;2022-11-12T15:05:00;14.40;;;13.90;;
41663;SDS011;27353;50.906;7.248;2022-11-12T15:09:56;14.50;;;14.00;;
41663;SDS011;27353;50.906;7.248;2022-11-12T15:12:23;14.93;;;14.25;;
41663;SDS011;27353;50.906;7.248;2022-11-12T15:14:51;14.73;;;14.02;;
41663;SDS011;27353;50.906;7.248;2022-11-12T15:17:36;14.55;;;13.95;;
41663;SDS011;27353;50.906;7.248;2022-11-12T15:20:10;14.48;;;13.68;;
41663;SDS011;27353;50.906;7.248;2022-11-12T15:22:38;14.65;;;14.05;;
41663;SDS011;27353;50.906;7.248;2022-11-12T15:25:10;14.18;;;13.48;;
41663;SDS011;27353;50.906;7.248;2022-11-12T15:27:49;15.55;;;14.65;;
41663;SDS011;27353;50.906;7.248;2022-11-12T15:30:20;14.57;;;14.00;;
41663;SDS011;27353;50.906;7.248;2022-11-12T15:32:57;15.25;;;14.23;;
41663;SDS011;27353;50.906;7.248;2022-11-12T15:35:35;15.18;;;14.40;;
41663;SDS011;27353;50.906;7.248;2022-11-12T15:40:31;14.60;;;13.68;;
41663;SDS011;27353;50.906;7.248;2022-11-12T15:43:11;14.93;;;14.23;;
41663;SDS011;27353;50.906;7.248;2022-11-12T15:45:39;14.32;;;13.50;;
41663;SDS011;27353;50.906;7.248;2022-11-12T15:48:06;14.23;;;13.55;;
41663;SDS011;27353;50.906;7.248;2022-11-12T15:50:35;14.65;;;13.98;;
41663;SDS011;27353;50.906;7.248;2022-11-12T15:53:03;14.50;;;13.90;;
41663;SDS011;27353;50.906;7.248;2022-11-12T15:55:28;14.20;;;13.50;;
41663;SDS011;27353;50.906;7.248;2022-11-12T15:57:54;13.95;;;13.25;;
41663;SDS011;27353;50.906;7.248;2022-11-12T16:00:21;15.25;;;14.40;;
41663;SDS011;27353;50.906;7.248;2022-11-12T16:02:50;14.65;;;13.95;;
41663;SDS011;27353;50.906;7.248;2022-11-12T16:05:23;15.23;;;14.43;;
41663;SDS011;27353;50.906;7.248;2022-11-12T16:07:49;14.52;;;13.73;;
41663;SDS011;27353;50.906;7.248;2022-11-12T16:10:16;14.55;;;13.75;;
41663;SDS011;27353;50.906;7.248;2022-11-12T16:12:43;14.40;;;13.50;;
41663;SDS011;27353;50.906;7.248;2022-11-12T16:15:14;14.98;;;14.18;;
41663;SDS011;27353;50.906;7.248;2022-11-12T16:17:45;13.65;;;12.65;;
41663;SDS011;27353;50.906;7.248;2022-11-12T16:20:15;14.05;;;13.35;;
41663;SDS011;27353;50.906;7.248;2022-11-12T16:22:48;13.73;;;13.02;;
41663;SDS011;27353;50.906;7.248;2022-11-12T16:25:15;14.63;;;13.70;;
41663;SDS011;27353;50.906;7.248;2022-11-12T16:27:41;14.35;;;13.50;;
41663;SDS011;27353;50.906;7.248;2022-11-12T16:30:17;14.80;;;14.00;;
41663;SDS011;27353;50.906;7.248;2022-11-12T16:32:51;14.73;;;13.80;;
41663;SDS011;27353;50.906;7.248;2022-11-12T16:35:17;15.07;;;14.18;;
41663;SDS011;27353;50.906;7.248;2022-11-12T16:37:43;16.13;;;15.23;;
41663;SDS011;27353;50.906;7.248;2022-11-12T16:40:17;15.48;;;14.77;;
41663;SDS011;27353;50.906;7.248;2022-11-12T16:42:44;13.30;;;12.60;;
41663;SDS011;27353;50.906;7.248;2022-11-12T16:45:13;14.43;;;13.80;;
41663;SDS011;27353;50.906;7.248;2022-11-12T16:47:45;15.52;;;14.30;;
41663;SDS011;27353;50.906;7.248;2022-11-12T16:50:13;13.48;;;12.88;;
41663;SDS011;27353;50.906;7.248;2022-11-12T16:52:45;15.18;;;14.18;;
41663;SDS011;27353;50.906;7.248;2022-11-12T16:55:11;14.68;;;13.82;;